Terminal Aerodrome Forecast
Issued by NWS

Home | Current Version | Previous Version | Text Only | Print | Product List | Glossary On
Versions: 1 2 3 4 5 6 7 8 9 10 11 12 13 14 15 16 17
000
FTUS43 KFGF 281725
TAFTVF
TAF
KTVF 281725Z 2818/2918 22015G25KT P6SM BKN035
     FM282100 22018G26KT P6SM SCT040
     FM290700 25022G30KT P6SM BKN025
     FM291400 29022G30KT P6SM BKN030
      AMD LTD TO CLD VIS AND WIND=

USA.gov is the U.S. government's official web portal to all federal, state and local government web resources and services.